sensor_id;sensor_type;location;lat;lon;timestamp;P1;durP1;ratioP1;P2;durP2;ratioP2
8293;SDS011;4185;41.506;24.938;2024-02-16T00:01:42;13.10;;;8.70;;
8293;SDS011;4185;41.506;24.938;2024-02-16T00:04:09;11.67;;;8.23;;
8293;SDS011;4185;41.506;24.938;2024-02-16T00:06:36;16.47;;;9.50;;
8293;SDS011;4185;41.506;24.938;2024-02-16T00:09:02;16.70;;;9.70;;
8293;SDS011;4185;41.506;24.938;2024-02-16T00:11:29;19.60;;;11.80;;
8293;SDS011;4185;41.506;24.938;2024-02-16T00:13:58;22.03;;;11.83;;
8293;SDS011;4185;41.506;24.938;2024-02-16T00:16:25;20.63;;;12.30;;
8293;SDS011;4185;41.506;24.938;2024-02-16T00:18:52;15.60;;;10.40;;
8293;SDS011;4185;41.506;24.938;2024-02-16T00:21:18;18.53;;;10.50;;
8293;SDS011;4185;41.506;24.938;2024-02-16T00:23:45;21.33;;;11.30;;
8293;SDS011;4185;41.506;24.938;2024-02-16T00:26:12;19.33;;;10.73;;
8293;SDS011;4185;41.506;24.938;2024-02-16T00:28:38;21.63;;;11.80;;
8293;SDS011;4185;41.506;24.938;2024-02-16T00:31:08;19.70;;;11.40;;
8293;SDS011;4185;41.506;24.938;2024-02-16T00:33:35;21.57;;;11.40;;
8293;SDS011;4185;41.506;24.938;2024-02-16T00:36:02;16.67;;;9.83;;
8293;SDS011;4185;41.506;24.938;2024-02-16T00:38:29;14.20;;;9.73;;
8293;SDS011;4185;41.506;24.938;2024-02-16T00:40:55;15.27;;;9.63;;
8293;SDS011;4185;41.506;24.938;2024-02-16T00:43:22;15.20;;;10.00;;
8293;SDS011;4185;41.506;24.938;2024-02-16T00:45:49;16.17;;;9.60;;
8293;SDS011;4185;41.506;24.938;2024-02-16T00:48:17;14.43;;;9.90;;
8293;SDS011;4185;41.506;24.938;2024-02-16T00:50:44;11.73;;;7.73;;
8293;SDS011;4185;41.506;24.938;2024-02-16T00:53:11;12.60;;;7.87;;
8293;SDS011;4185;41.506;24.938;2024-02-16T00:55:38;12.83;;;8.67;;
8293;SDS011;4185;41.506;24.938;2024-02-16T00:58:06;13.73;;;8.50;;
8293;SDS011;4185;41.506;24.938;2024-02-16T01:00:33;11.57;;;8.13;;
8293;SDS011;4185;41.506;24.938;2024-02-16T01:03:00;11.07;;;7.90;;
8293;SDS011;4185;41.506;24.938;2024-02-16T01:05:29;13.20;;;8.10;;
8293;SDS011;4185;41.506;24.938;2024-02-16T01:07:55;17.40;;;9.57;;
8293;SDS011;4185;41.506;24.938;2024-02-16T01:10:22;12.93;;;9.20;;
8293;SDS011;4185;41.506;24.938;2024-02-16T01:12:49;16.73;;;9.43;;
8293;SDS011;4185;41.506;24.938;2024-02-16T01:15:17;12.87;;;7.83;;
8293;SDS011;4185;41.506;24.938;2024-02-16T01:17:44;15.40;;;9.63;;
8293;SDS011;4185;41.506;24.938;2024-02-16T01:20:12;15.40;;;10.07;;
8293;SDS011;4185;41.506;24.938;2024-02-16T01:22:40;13.43;;;9.07;;
8293;SDS011;4185;41.506;24.938;2024-02-16T01:25:07;18.17;;;9.40;;
8293;SDS011;4185;41.506;24.938;2024-02-16T01:27:34;13.13;;;9.77;;
8293;SDS011;4185;41.506;24.938;2024-02-16T01:30:01;17.60;;;9.87;;
8293;SDS011;4185;41.506;24.938;2024-02-16T01:32:28;13.60;;;9.77;;
8293;SDS011;4185;41.506;24.938;2024-02-16T01:34:55;16.50;;;8.87;;
8293;SDS011;4185;41.506;24.938;2024-02-16T01:37:23;12.77;;;8.97;;
8293;SDS011;4185;41.506;24.938;2024-02-16T01:39:51;13.33;;;8.80;;
8293;SDS011;4185;41.506;24.938;2024-02-16T01:42:17;15.17;;;9.70;;
8293;SDS011;4185;41.506;24.938;2024-02-16T01:44:44;13.57;;;9.00;;
8293;SDS011;4185;41.506;24.938;2024-02-16T01:47:11;14.93;;;9.67;;
8293;SDS011;4185;41.506;24.938;2024-02-16T01:49:38;15.27;;;10.03;;
8293;SDS011;4185;41.506;24.938;2024-02-16T01:52:05;14.67;;;9.20;;
8293;SDS011;4185;41.506;24.938;2024-02-16T01:54:32;14.63;;;9.17;;
8293;SDS011;4185;41.506;24.938;2024-02-16T01:57:01;17.97;;;9.93;;
8293;SDS011;4185;41.506;24.938;2024-02-16T01:59:28;14.10;;;9.17;;
8293;SDS011;4185;41.506;24.938;2024-02-16T02:01:55;11.20;;;8.10;;
8293;SDS011;4185;41.506;24.938;2024-02-16T02:04:21;14.83;;;8.53;;
8293;SDS011;4185;41.506;24.938;2024-02-16T02:06:48;15.13;;;8.37;;
8293;SDS011;4185;41.506;24.938;2024-02-16T02:09:15;19.33;;;9.73;;
8293;SDS011;4185;41.506;24.938;2024-02-16T02:11:41;16.63;;;9.77;;
8293;SDS011;4185;41.506;24.938;2024-02-16T02:14:10;14.63;;;8.43;;
8293;SDS011;4185;41.506;24.938;2024-02-16T02:16:36;14.67;;;8.20;;
8293;SDS011;4185;41.506;24.938;2024-02-16T02:19:03;11.77;;;7.33;;
8293;SDS011;4185;41.506;24.938;2024-02-16T02:21:30;16.23;;;9.33;;
8293;SDS011;4185;41.506;24.938;2024-02-16T02:23:58;13.17;;;8.10;;
8293;SDS011;4185;41.506;24.938;2024-02-16T02:26:25;15.67;;;7.60;;
8293;SDS011;4185;41.506;24.938;2024-02-16T02:28:52;13.20;;;8.03;;
8293;SDS011;4185;41.506;24.938;2024-02-16T02:31:19;10.80;;;7.20;;
8293;SDS011;4185;41.506;24.938;2024-02-16T02:33:45;13.20;;;7.43;;
8293;SDS011;4185;41.506;24.938;2024-02-16T02:36:13;8.60;;;6.30;;
8293;SDS011;4185;41.506;24.938;2024-02-16T02:38:39;11.70;;;6.40;;
8293;SDS011;4185;41.506;24.938;2024-02-16T02:41:07;14.27;;;6.57;;
8293;SDS011;4185;41.506;24.938;2024-02-16T02:43:34;10.83;;;6.63;;
8293;SDS011;4185;41.506;24.938;2024-02-16T02:46:01;9.30;;;6.43;;
8293;SDS011;4185;41.506;24.938;2024-02-16T02:48:27;6.97;;;5.73;;
8293;SDS011;4185;41.506;24.938;2024-02-16T02:50:54;9.27;;;6.37;;
8293;SDS011;4185;41.506;24.938;2024-02-16T02:53:21;9.50;;;6.90;;
8293;SDS011;4185;41.506;24.938;2024-02-16T02:55:48;8.53;;;6.37;;
8293;SDS011;4185;41.506;24.938;2024-02-16T02:58:16;12.27;;;6.67;;
8293;SDS011;4185;41.506;24.938;2024-02-16T03:00:43;9.73;;;7.23;;
8293;SDS011;4185;41.506;24.938;2024-02-16T03:03:10;12.13;;;6.43;;
8293;SDS011;4185;41.506;24.938;2024-02-16T03:05:40;6.83;;;5.03;;
8293;SDS011;4185;41.506;24.938;2024-02-16T03:08:07;7.27;;;5.17;;
8293;SDS011;4185;41.506;24.938;2024-02-16T03:10:36;10.37;;;6.73;;
8293;SDS011;4185;41.506;24.938;2024-02-16T03:13:02;10.00;;;6.83;;
8293;SDS011;4185;41.506;24.938;2024-02-16T03:15:33;12.03;;;7.43;;
8293;SDS011;4185;41.506;24.938;2024-02-16T03:18:00;12.90;;;6.77;;
8293;SDS011;4185;41.506;24.938;2024-02-16T03:20:27;10.43;;;6.67;;
8293;SDS011;4185;41.506;24.938;2024-02-16T03:22:55;9.17;;;6.00;;
8293;SDS011;4185;41.506;24.938;2024-02-16T03:25:22;7.97;;;5.57;;
8293;SDS011;4185;41.506;24.938;2024-02-16T03:27:49;9.40;;;6.03;;
8293;SDS011;4185;41.506;24.938;2024-02-16T03:30:16;7.07;;;5.33;;
8293;SDS011;4185;41.506;24.938;2024-02-16T03:32:44;8.00;;;5.20;;
8293;SDS011;4185;41.506;24.938;2024-02-16T03:35:14;8.83;;;6.67;;
8293;SDS011;4185;41.506;24.938;2024-02-16T03:37:41;9.07;;;6.10;;
8293;SDS011;4185;41.506;24.938;2024-02-16T03:40:08;10.83;;;7.20;;
8293;SDS011;4185;41.506;24.938;2024-02-16T03:42:36;12.17;;;7.50;;
8293;SDS011;4185;41.506;24.938;2024-02-16T03:45:03;11.83;;;7.07;;
8293;SDS011;4185;41.506;24.938;2024-02-16T03:47:30;10.80;;;7.03;;
8293;SDS011;4185;41.506;24.938;2024-02-16T03:49:58;9.00;;;6.83;;
8293;SDS011;4185;41.506;24.938;2024-02-16T03:52:25;13.37;;;8.00;;
8293;SDS011;4185;41.506;24.938;2024-02-16T03:54:52;12.17;;;7.53;;
8293;SDS011;4185;41.506;24.938;2024-02-16T03:57:19;11.57;;;7.57;;
8293;SDS011;4185;41.506;24.938;2024-02-16T03:59:45;10.07;;;7.70;;
8293;SDS011;4185;41.506;24.938;2024-02-16T04:02:12;10.57;;;7.47;;
8293;SDS011;4185;41.506;24.938;2024-02-16T04:04:39;9.63;;;7.73;;
8293;SDS011;4185;41.506;24.938;2024-02-16T04:07:07;11.30;;;6.57;;
8293;SDS011;4185;41.506;24.938;2024-02-16T04:09:34;13.00;;;7.23;;
8293;SDS011;4185;41.506;24.938;2024-02-16T04:12:01;9.10;;;6.40;;
8293;SDS011;4185;41.506;24.938;2024-02-16T04:14:29;10.03;;;7.17;;
8293;SDS011;4185;41.506;24.938;2024-02-16T04:16:57;10.87;;;7.50;;
8293;SDS011;4185;41.506;24.938;2024-02-16T04:19:24;13.13;;;8.50;;
8293;SDS011;4185;41.506;24.938;2024-02-16T04:21:51;14.50;;;7.77;;
8293;SDS011;4185;41.506;24.938;2024-02-16T04:24:19;13.50;;;7.70;;
8293;SDS011;4185;41.506;24.938;2024-02-16T04:26:46;13.77;;;7.53;;
8293;SDS011;4185;41.506;24.938;2024-02-16T04:29:13;13.00;;;8.40;;
8293;SDS011;4185;41.506;24.938;2024-02-16T04:31:41;10.87;;;7.33;;
8293;SDS011;4185;41.506;24.938;2024-02-16T04:34:10;12.13;;;7.97;;
8293;SDS011;4185;41.506;24.938;2024-02-16T04:36:37;12.93;;;8.87;;
8293;SDS011;4185;41.506;24.938;2024-02-16T04:39:03;14.23;;;8.80;;
8293;SDS011;4185;41.506;24.938;2024-02-16T04:41:31;15.63;;;11.70;;
8293;SDS011;4185;41.506;24.938;2024-02-16T04:43:58;16.63;;;9.80;;
8293;SDS011;4185;41.506;24.938;2024-02-16T04:46:25;13.13;;;8.33;;
8293;SDS011;4185;41.506;24.938;2024-02-16T04:48:52;16.43;;;10.30;;
8293;SDS011;4185;41.506;24.938;2024-02-16T04:51:18;15.10;;;9.60;;
8293;SDS011;4185;41.506;24.938;2024-02-16T04:53:45;14.10;;;10.00;;
8293;SDS011;4185;41.506;24.938;2024-02-16T04:56:13;14.33;;;9.60;;
8293;SDS011;4185;41.506;24.938;2024-02-16T04:58:41;15.27;;;9.27;;
8293;SDS011;4185;41.506;24.938;2024-02-16T05:01:08;27.37;;;15.00;;
8293;SDS011;4185;41.506;24.938;2024-02-16T05:03:35;20.60;;;12.30;;
8293;SDS011;4185;41.506;24.938;2024-02-16T05:06:02;16.73;;;9.63;;
8293;SDS011;4185;41.506;24.938;2024-02-16T05:08:29;20.70;;;13.20;;
8293;SDS011;4185;41.506;24.938;2024-02-16T05:10:56;43.40;;;22.70;;
8293;SDS011;4185;41.506;24.938;2024-02-16T05:13:22;31.37;;;17.00;;
8293;SDS011;4185;41.506;24.938;2024-02-16T05:15:52;32.90;;;19.30;;
8293;SDS011;4185;41.506;24.938;2024-02-16T05:18:21;31.23;;;18.93;;
8293;SDS011;4185;41.506;24.938;2024-02-16T05:20:48;29.77;;;17.50;;
8293;SDS011;4185;41.506;24.938;2024-02-16T05:23:14;26.07;;;15.77;;
8293;SDS011;4185;41.506;24.938;2024-02-16T05:25:41;28.73;;;19.80;;
8293;SDS011;4185;41.506;24.938;2024-02-16T05:28:08;26.10;;;13.60;;
8293;SDS011;4185;41.506;24.938;2024-02-16T05:30:34;23.23;;;14.37;;
8293;SDS011;4185;41.506;24.938;2024-02-16T05:33:02;24.57;;;14.90;;
8293;SDS011;4185;41.506;24.938;2024-02-16T05:35:29;23.77;;;14.97;;
8293;SDS011;4185;41.506;24.938;2024-02-16T05:37:59;20.90;;;14.30;;
8293;SDS011;4185;41.506;24.938;2024-02-16T05:40:32;25.50;;;14.73;;
8293;SDS011;4185;41.506;24.938;2024-02-16T05:43:10;23.97;;;14.13;;
8293;SDS011;4185;41.506;24.938;2024-02-16T05:45:37;22.53;;;14.77;;
8293;SDS011;4185;41.506;24.938;2024-02-16T05:48:08;28.10;;;16.37;;
8293;SDS011;4185;41.506;24.938;2024-02-16T05:50:35;24.13;;;14.30;;
8293;SDS011;4185;41.506;24.938;2024-02-16T05:53:02;21.47;;;12.70;;
8293;SDS011;4185;41.506;24.938;2024-02-16T05:55:29;21.00;;;13.03;;
8293;SDS011;4185;41.506;24.938;2024-02-16T05:57:55;62.50;;;26.00;;
8293;SDS011;4185;41.506;24.938;2024-02-16T06:00:22;39.47;;;18.87;;
8293;SDS011;4185;41.506;24.938;2024-02-16T06:02:49;25.60;;;14.00;;
8293;SDS011;4185;41.506;24.938;2024-02-16T06:05:17;19.70;;;13.73;;
8293;SDS011;4185;41.506;24.938;2024-02-16T06:07:45;17.60;;;11.97;;
8293;SDS011;4185;41.506;24.938;2024-02-16T06:10:12;25.17;;;14.33;;
8293;SDS011;4185;41.506;24.938;2024-02-16T06:12:39;25.70;;;15.23;;
8293;SDS011;4185;41.506;24.938;2024-02-16T06:15:06;25.27;;;15.80;;
8293;SDS011;4185;41.506;24.938;2024-02-16T06:17:33;25.63;;;15.90;;
8293;SDS011;4185;41.506;24.938;2024-02-16T06:20:01;32.53;;;19.73;;
8293;SDS011;4185;41.506;24.938;2024-02-16T06:22:31;39.27;;;22.90;;
8293;SDS011;4185;41.506;24.938;2024-02-16T06:24:58;20.20;;;12.33;;
8293;SDS011;4185;41.506;24.938;2024-02-16T06:27:24;16.10;;;10.87;;
8293;SDS011;4185;41.506;24.938;2024-02-16T06:29:51;24.40;;;14.37;;
8293;SDS011;4185;41.506;24.938;2024-02-16T06:32:18;26.50;;;16.13;;
8293;SDS011;4185;41.506;24.938;2024-02-16T06:34:45;27.43;;;16.27;;
8293;SDS011;4185;41.506;24.938;2024-02-16T06:37:11;16.90;;;10.90;;
8293;SDS011;4185;41.506;24.938;2024-02-16T06:39:39;23.10;;;11.67;;
8293;SDS011;4185;41.506;24.938;2024-02-16T06:42:08;22.37;;;13.03;;
8293;SDS011;4185;41.506;24.938;2024-02-16T06:44:37;22.50;;;14.00;;
8293;SDS011;4185;41.506;24.938;2024-02-16T06:47:04;25.87;;;15.90;;
8293;SDS011;4185;41.506;24.938;2024-02-16T06:49:31;30.63;;;18.17;;
8293;SDS011;4185;41.506;24.938;2024-02-16T06:51:58;30.97;;;19.77;;
8293;SDS011;4185;41.506;24.938;2024-02-16T06:54:25;30.77;;;18.53;;
8293;SDS011;4185;41.506;24.938;2024-02-16T06:56:53;27.30;;;16.90;;
8293;SDS011;4185;41.506;24.938;2024-02-16T06:59:19;27.03;;;17.80;;
8293;SDS011;4185;41.506;24.938;2024-02-16T07:01:46;25.00;;;17.33;;
8293;SDS011;4185;41.506;24.938;2024-02-16T07:04:13;25.77;;;15.43;;
8293;SDS011;4185;41.506;24.938;2024-02-16T07:06:39;22.20;;;15.00;;
8293;SDS011;4185;41.506;24.938;2024-02-16T07:09:07;20.13;;;12.97;;
8293;SDS011;4185;41.506;24.938;2024-02-16T07:11:34;14.77;;;9.83;;
8293;SDS011;4185;41.506;24.938;2024-02-16T07:14:02;17.43;;;9.83;;
8293;SDS011;4185;41.506;24.938;2024-02-16T07:16:31;13.37;;;10.20;;
8293;SDS011;4185;41.506;24.938;2024-02-16T07:18:58;15.77;;;10.93;;
8293;SDS011;4185;41.506;24.938;2024-02-16T07:21:25;16.47;;;11.73;;
8293;SDS011;4185;41.506;24.938;2024-02-16T07:23:52;18.30;;;10.93;;
8293;SDS011;4185;41.506;24.938;2024-02-16T07:26:19;16.70;;;9.50;;
8293;SDS011;4185;41.506;24.938;2024-02-16T07:28:45;17.90;;;11.60;;
8293;SDS011;4185;41.506;24.938;2024-02-16T07:31:13;18.60;;;11.83;;
8293;SDS011;4185;41.506;24.938;2024-02-16T07:33:41;20.00;;;13.27;;
8293;SDS011;4185;41.506;24.938;2024-02-16T07:36:07;14.23;;;9.53;;
8293;SDS011;4185;41.506;24.938;2024-02-16T07:38:34;16.40;;;9.77;;
8293;SDS011;4185;41.506;24.938;2024-02-16T07:41:01;12.37;;;8.73;;
8293;SDS011;4185;41.506;24.938;2024-02-16T07:43:29;19.37;;;12.50;;
8293;SDS011;4185;41.506;24.938;2024-02-16T07:45:57;21.37;;;14.47;;
8293;SDS011;4185;41.506;24.938;2024-02-16T07:48:25;22.63;;;14.37;;
8293;SDS011;4185;41.506;24.938;2024-02-16T07:50:51;33.87;;;20.20;;
8293;SDS011;4185;41.506;24.938;2024-02-16T07:53:18;27.37;;;16.53;;
8293;SDS011;4185;41.506;24.938;2024-02-16T07:55:45;25.90;;;16.10;;
8293;SDS011;4185;41.506;24.938;2024-02-16T07:58:11;27.90;;;17.37;;
8293;SDS011;4185;41.506;24.938;2024-02-16T08:00:38;27.67;;;15.67;;
8293;SDS011;4185;41.506;24.938;2024-02-16T08:03:05;33.33;;;18.33;;
8293;SDS011;4185;41.506;24.938;2024-02-16T08:05:33;33.00;;;18.90;;
8293;SDS011;4185;41.506;24.938;2024-02-16T08:08:00;30.60;;;18.20;;
8293;SDS011;4185;41.506;24.938;2024-02-16T08:10:28;31.17;;;18.73;;
8293;SDS011;4185;41.506;24.938;2024-02-16T08:12:55;32.73;;;18.37;;
8293;SDS011;4185;41.506;24.938;2024-02-16T08:15:21;31.67;;;19.13;;
8293;SDS011;4185;41.506;24.938;2024-02-16T08:17:49;30.83;;;19.97;;
8293;SDS011;4185;41.506;24.938;2024-02-16T08:20:16;33.43;;;19.97;;
8293;SDS011;4185;41.506;24.938;2024-02-16T08:22:44;20.47;;;13.30;;
8293;SDS011;4185;41.506;24.938;2024-02-16T08:25:11;15.97;;;10.07;;
8293;SDS011;4185;41.506;24.938;2024-02-16T08:27:37;18.23;;;11.13;;
8293;SDS011;4185;41.506;24.938;2024-02-16T08:30:04;20.83;;;12.57;;
8293;SDS011;4185;41.506;24.938;2024-02-16T08:32:34;34.50;;;17.60;;
8293;SDS011;4185;41.506;24.938;2024-02-16T08:35:00;17.00;;;11.00;;
8293;SDS011;4185;41.506;24.938;2024-02-16T08:37:28;15.07;;;11.43;;
8293;SDS011;4185;41.506;24.938;2024-02-16T08:39:56;14.33;;;8.93;;
8293;SDS011;4185;41.506;24.938;2024-02-16T08:42:23;15.47;;;9.93;;
8293;SDS011;4185;41.506;24.938;2024-02-16T08:44:49;16.27;;;9.77;;
8293;SDS011;4185;41.506;24.938;2024-02-16T08:47:16;17.13;;;11.47;;
8293;SDS011;4185;41.506;24.938;2024-02-16T08:49:43;18.60;;;12.80;;
8293;SDS011;4185;41.506;24.938;2024-02-16T08:52:10;15.90;;;10.17;;
8293;SDS011;4185;41.506;24.938;2024-02-16T08:54:37;18.00;;;9.73;;
8293;SDS011;4185;41.506;24.938;2024-02-16T08:57:05;13.10;;;9.00;;
8293;SDS011;4185;41.506;24.938;2024-02-16T08:59:32;13.67;;;9.13;;
8293;SDS011;4185;41.506;24.938;2024-02-16T09:01:59;14.83;;;9.33;;
8293;SDS011;4185;41.506;24.938;2024-02-16T09:04:26;10.17;;;8.13;;
8293;SDS011;4185;41.506;24.938;2024-02-16T09:06:53;14.70;;;9.30;;
8293;SDS011;4185;41.506;24.938;2024-02-16T09:09:19;13.23;;;8.37;;
8293;SDS011;4185;41.506;24.938;2024-02-16T09:11:46;23.13;;;12.90;;
8293;SDS011;4185;41.506;24.938;2024-02-16T09:14:14;14.63;;;9.27;;
8293;SDS011;4185;41.506;24.938;2024-02-16T09:16:41;15.77;;;10.83;;
8293;SDS011;4185;41.506;24.938;2024-02-16T09:19:08;19.40;;;11.30;;
8293;SDS011;4185;41.506;24.938;2024-02-16T09:21:34;21.70;;;12.57;;
8293;SDS011;4185;41.506;24.938;2024-02-16T09:24:01;22.57;;;12.63;;
8293;SDS011;4185;41.506;24.938;2024-02-16T09:26:29;17.23;;;11.73;;
8293;SDS011;4185;41.506;24.938;2024-02-16T09:28:58;20.50;;;12.70;;
8293;SDS011;4185;41.506;24.938;2024-02-16T09:31:26;23.07;;;15.77;;
8293;SDS011;4185;41.506;24.938;2024-02-16T09:33:53;30.23;;;18.23;;
8293;SDS011;4185;41.506;24.938;2024-02-16T09:36:20;29.70;;;18.93;;
8293;SDS011;4185;41.506;24.938;2024-02-16T09:38:48;23.70;;;15.50;;
8293;SDS011;4185;41.506;24.938;2024-02-16T09:41:15;14.47;;;9.50;;
8293;SDS011;4185;41.506;24.938;2024-02-16T09:43:42;13.60;;;9.07;;
8293;SDS011;4185;41.506;24.938;2024-02-16T09:46:08;33.77;;;29.83;;
8293;SDS011;4185;41.506;24.938;2024-02-16T09:48:37;23.63;;;21.07;;
8293;SDS011;4185;41.506;24.938;2024-02-16T09:51:06;27.33;;;24.37;;
8293;SDS011;4185;41.506;24.938;2024-02-16T09:53:32;34.13;;;27.77;;
8293;SDS011;4185;41.506;24.938;2024-02-16T09:55:59;16.67;;;14.90;;
8293;SDS011;4185;41.506;24.938;2024-02-16T09:58:26;22.50;;;19.97;;
8293;SDS011;4185;41.506;24.938;2024-02-16T10:00:54;17.37;;;13.73;;
8293;SDS011;4185;41.506;24.938;2024-02-16T10:03:22;9.23;;;8.30;;
8293;SDS011;4185;41.506;24.938;2024-02-16T10:06:03;10.23;;;8.27;;
8293;SDS011;4185;41.506;24.938;2024-02-16T10:08:31;8.50;;;6.50;;
8293;SDS011;4185;41.506;24.938;2024-02-16T10:11:01;6.93;;;6.20;;
8293;SDS011;4185;41.506;24.938;2024-02-16T10:13:28;5.63;;;4.70;;
8293;SDS011;4185;41.506;24.938;2024-02-16T10:16:04;6.50;;;3.90;;
8293;SDS011;4185;41.506;24.938;2024-02-16T10:18:33;5.47;;;4.50;;
8293;SDS011;4185;41.506;24.938;2024-02-16T10:21:01;5.07;;;4.10;;
8293;SDS011;4185;41.506;24.938;2024-02-16T10:23:28;7.00;;;5.33;;
8293;SDS011;4185;41.506;24.938;2024-02-16T10:25:55;5.00;;;4.47;;
8293;SDS011;4185;41.506;24.938;2024-02-16T10:28:24;6.90;;;5.97;;
8293;SDS011;4185;41.506;24.938;2024-02-16T10:30:55;3.53;;;3.13;;
8293;SDS011;4185;41.506;24.938;2024-02-16T10:33:24;6.57;;;4.50;;
8293;SDS011;4185;41.506;24.938;2024-02-16T10:35:53;7.87;;;5.60;;
8293;SDS011;4185;41.506;24.938;2024-02-16T10:38:23;4.83;;;3.50;;
8293;SDS011;4185;41.506;24.938;2024-02-16T10:40:52;3.67;;;3.00;;
8293;SDS011;4185;41.506;24.938;2024-02-16T10:43:20;3.00;;;2.70;;
8293;SDS011;4185;41.506;24.938;2024-02-16T10:45:48;3.27;;;2.97;;
8293;SDS011;4185;41.506;24.938;2024-02-16T10:48:18;5.63;;;3.50;;
8293;SDS011;4185;41.506;24.938;2024-02-16T10:50:45;3.50;;;3.20;;
8293;SDS011;4185;41.506;24.938;2024-02-16T10:53:17;3.50;;;3.20;;
8293;SDS011;4185;41.506;24.938;2024-02-16T10:55:50;3.63;;;2.77;;
8293;SDS011;4185;41.506;24.938;2024-02-16T10:58:17;3.60;;;3.03;;
8293;SDS011;4185;41.506;24.938;2024-02-16T11:00:48;3.83;;;3.27;;
8293;SDS011;4185;41.506;24.938;2024-02-16T11:03:22;3.63;;;2.90;;
8293;SDS011;4185;41.506;24.938;2024-02-16T11:05:50;5.30;;;3.33;;
8293;SDS011;4185;41.506;24.938;2024-02-16T11:08:18;3.80;;;2.93;;
8293;SDS011;4185;41.506;24.938;2024-02-16T11:10:56;5.47;;;3.63;;
8293;SDS011;4185;41.506;24.938;2024-02-16T11:13:23;4.53;;;3.90;;
8293;SDS011;4185;41.506;24.938;2024-02-16T11:15:56;2.83;;;2.57;;
8293;SDS011;4185;41.506;24.938;2024-02-16T11:18:23;3.70;;;2.60;;
8293;SDS011;4185;41.506;24.938;2024-02-16T11:20:50;4.07;;;3.00;;
8293;SDS011;4185;41.506;24.938;2024-02-16T11:23:24;4.80;;;3.50;;
8293;SDS011;4185;41.506;24.938;2024-02-16T11:25:53;3.03;;;2.73;;
8293;SDS011;4185;41.506;24.938;2024-02-16T11:28:21;4.77;;;3.63;;
8293;SDS011;4185;41.506;24.938;2024-02-16T11:30:48;2.80;;;2.50;;
8293;SDS011;4185;41.506;24.938;2024-02-16T11:33:16;4.83;;;4.20;;
8293;SDS011;4185;41.506;24.938;2024-02-16T11:35:51;5.13;;;3.40;;
8293;SDS011;4185;41.506;24.938;2024-02-16T11:38:19;3.03;;;2.57;;
8293;SDS011;4185;41.506;24.938;2024-02-16T11:40:52;3.73;;;3.20;;
8293;SDS011;4185;41.506;24.938;2024-02-16T11:43:21;3.90;;;2.73;;
8293;SDS011;4185;41.506;24.938;2024-02-16T11:45:48;3.47;;;2.90;;
8293;SDS011;4185;41.506;24.938;2024-02-16T11:48:18;5.70;;;3.33;;
8293;SDS011;4185;41.506;24.938;2024-02-16T11:50:46;6.40;;;3.37;;
8293;SDS011;4185;41.506;24.938;2024-02-16T11:53:15;2.53;;;2.33;;
8293;SDS011;4185;41.506;24.938;2024-02-16T11:55:45;3.13;;;2.77;;
8293;SDS011;4185;41.506;24.938;2024-02-16T11:58:13;5.27;;;3.07;;
8293;SDS011;4185;41.506;24.938;2024-02-16T12:00:42;3.83;;;2.87;;
8293;SDS011;4185;41.506;24.938;2024-02-16T12:03:09;23.03;;;12.07;;
8293;SDS011;4185;41.506;24.938;2024-02-16T12:05:36;7.13;;;4.90;;
8293;SDS011;4185;41.506;24.938;2024-02-16T12:08:05;5.87;;;4.90;;
8293;SDS011;4185;41.506;24.938;2024-02-16T12:10:32;4.23;;;3.43;;
8293;SDS011;4185;41.506;24.938;2024-02-16T12:12:59;4.03;;;3.27;;
8293;SDS011;4185;41.506;24.938;2024-02-16T12:15:26;6.63;;;4.13;;
8293;SDS011;4185;41.506;24.938;2024-02-16T12:18:00;6.20;;;4.40;;
8293;SDS011;4185;41.506;24.938;2024-02-16T12:20:28;4.03;;;3.20;;
8293;SDS011;4185;41.506;24.938;2024-02-16T12:22:56;9.00;;;5.10;;
8293;SDS011;4185;41.506;24.938;2024-02-16T12:25:24;6.73;;;4.70;;
8293;SDS011;4185;41.506;24.938;2024-02-16T12:27:51;3.70;;;3.30;;
8293;SDS011;4185;41.506;24.938;2024-02-16T12:30:17;5.77;;;3.53;;
8293;SDS011;4185;41.506;24.938;2024-02-16T12:32:44;5.50;;;3.50;;
8293;SDS011;4185;41.506;24.938;2024-02-16T12:35:12;4.23;;;3.20;;
8293;SDS011;4185;41.506;24.938;2024-02-16T12:37:39;5.37;;;3.77;;
8293;SDS011;4185;41.506;24.938;2024-02-16T12:40:06;5.13;;;3.50;;
8293;SDS011;4185;41.506;24.938;2024-02-16T12:42:34;4.37;;;3.00;;
8293;SDS011;4185;41.506;24.938;2024-02-16T12:45:00;3.73;;;2.50;;
8293;SDS011;4185;41.506;24.938;2024-02-16T12:47:27;4.30;;;2.90;;
8293;SDS011;4185;41.506;24.938;2024-02-16T12:49:55;3.63;;;2.40;;
8293;SDS011;4185;41.506;24.938;2024-02-16T12:52:23;2.70;;;2.50;;
8293;SDS011;4185;41.506;24.938;2024-02-16T12:54:51;4.47;;;3.03;;
8293;SDS011;4185;41.506;24.938;2024-02-16T12:57:19;4.17;;;3.10;;
8293;SDS011;4185;41.506;24.938;2024-02-16T12:59:45;4.67;;;2.60;;
8293;SDS011;4185;41.506;24.938;2024-02-16T13:02:12;4.00;;;2.87;;
8293;SDS011;4185;41.506;24.938;2024-02-16T13:04:39;4.50;;;2.77;;
8293;SDS011;4185;41.506;24.938;2024-02-16T13:07:05;3.83;;;2.70;;
8293;SDS011;4185;41.506;24.938;2024-02-16T13:09:34;3.30;;;3.00;;
8293;SDS011;4185;41.506;24.938;2024-02-16T13:12:00;3.77;;;2.73;;
8293;SDS011;4185;41.506;24.938;2024-02-16T13:14:28;5.00;;;3.63;;
8293;SDS011;4185;41.506;24.938;2024-02-16T13:16:54;3.63;;;2.77;;
8293;SDS011;4185;41.506;24.938;2024-02-16T13:19:21;6.97;;;4.57;;
8293;SDS011;4185;41.506;24.938;2024-02-16T13:21:49;8.67;;;5.33;;
8293;SDS011;4185;41.506;24.938;2024-02-16T13:24:16;3.57;;;2.93;;
8293;SDS011;4185;41.506;24.938;2024-02-16T13:26:44;5.93;;;3.70;;
8293;SDS011;4185;41.506;24.938;2024-02-16T13:29:11;5.37;;;4.20;;
8293;SDS011;4185;41.506;24.938;2024-02-16T13:31:38;3.97;;;3.17;;
8293;SDS011;4185;41.506;24.938;2024-02-16T13:34:05;5.53;;;4.03;;
8293;SDS011;4185;41.506;24.938;2024-02-16T13:36:32;4.90;;;4.00;;
8293;SDS011;4185;41.506;24.938;2024-02-16T13:38:59;5.00;;;3.90;;
8293;SDS011;4185;41.506;24.938;2024-02-16T13:41:25;4.10;;;3.63;;
8293;SDS011;4185;41.506;24.938;2024-02-16T13:43:54;5.40;;;3.83;;
8293;SDS011;4185;41.506;24.938;2024-02-16T13:46:20;7.80;;;5.13;;
8293;SDS011;4185;41.506;24.938;2024-02-16T13:48:47;4.17;;;3.50;;
8293;SDS011;4185;41.506;24.938;2024-02-16T13:51:14;6.40;;;4.57;;
8293;SDS011;4185;41.506;24.938;2024-02-16T13:53:40;4.33;;;3.60;;
8293;SDS011;4185;41.506;24.938;2024-02-16T13:56:08;4.43;;;3.40;;
8293;SDS011;4185;41.506;24.938;2024-02-16T13:58:34;4.00;;;3.47;;
8293;SDS011;4185;41.506;24.938;2024-02-16T14:01:03;4.13;;;3.00;;
8293;SDS011;4185;41.506;24.938;2024-02-16T14:03:31;5.30;;;3.50;;
8293;SDS011;4185;41.506;24.938;2024-02-16T14:05:59;3.47;;;3.17;;
8293;SDS011;4185;41.506;24.938;2024-02-16T14:08:26;5.03;;;3.30;;
8293;SDS011;4185;41.506;24.938;2024-02-16T14:10:53;5.93;;;4.50;;
8293;SDS011;4185;41.506;24.938;2024-02-16T14:13:20;3.47;;;3.17;;
8293;SDS011;4185;41.506;24.938;2024-02-16T14:15:47;5.73;;;4.30;;
8293;SDS011;4185;41.506;24.938;2024-02-16T14:18:16;4.67;;;4.00;;
8293;SDS011;4185;41.506;24.938;2024-02-16T14:20:42;4.17;;;3.70;;
8293;SDS011;4185;41.506;24.938;2024-02-16T14:23:09;4.87;;;3.27;;
8293;SDS011;4185;41.506;24.938;2024-02-16T14:25:36;12.93;;;8.87;;
8293;SDS011;4185;41.506;24.938;2024-02-16T14:28:05;4.53;;;4.07;;
8293;SDS011;4185;41.506;24.938;2024-02-16T14:30:32;14.20;;;8.30;;
8293;SDS011;4185;41.506;24.938;2024-02-16T14:32:59;4.60;;;4.20;;
8293;SDS011;4185;41.506;24.938;2024-02-16T14:35:27;10.60;;;6.97;;
8293;SDS011;4185;41.506;24.938;2024-02-16T14:37:55;7.53;;;5.77;;
8293;SDS011;4185;41.506;24.938;2024-02-16T14:40:21;5.70;;;4.70;;
8293;SDS011;4185;41.506;24.938;2024-02-16T14:42:48;4.33;;;3.10;;
8293;SDS011;4185;41.506;24.938;2024-02-16T14:45:15;8.90;;;6.53;;
8293;SDS011;4185;41.506;24.938;2024-02-16T14:47:46;4.40;;;3.70;;
8293;SDS011;4185;41.506;24.938;2024-02-16T14:50:13;5.80;;;4.87;;